Time;durP1;ratioP1;P1;durP2;ratioP2;P2;SDS_P1;SDS_P2;PMS_P1;PMS_P2;Temp;Humidity;BMP_temperature;BMP_pressure;BME280_temperature;BME280_humidity;BME280_pressure;Samples;Min_cycle;Max_cycle;Signal;HPM_P1;HPM_P2
2022/04/12 00:01:37;;;;;;;37.20;14.15;;;;;;;;;;5057030;28;20021;-74
2022/04/12 00:04:03;;;;;;;27.55;12.00;;;;;;;;;;5057921;28;20063;-74
2022/04/12 00:06:29;;;;;;;35.03;12.90;;;;;;;;;;5058360;28;20056;-74
2022/04/12 00:08:55;;;;;;;43.70;14.30;;;;;;;;;;5056982;28;20025;-73
2022/04/12 00:11:21;;;;;;;33.45;11.70;;;;;;;;;;5057690;28;20059;-74
2022/04/12 00:13:47;;;;;;;30.33;12.23;;;;;;;;;;5057578;28;20119;-74
2022/04/12 00:16:13;;;;;;;48.65;13.70;;;;;;;;;;5057755;28;20028;-73
2022/04/12 00:21:23;;;;;;;51.65;15.20;;;;;;;;;;5056753;28;20311;-73
2022/04/12 00:23:49;;;;;;;36.72;12.57;;;;;;;;;;5056890;28;20025;-73
2022/04/12 00:26:16;;;;;;;35.90;12.88;;;;;;;;;;5057593;28;20017;-74
2022/04/12 00:28:42;;;;;;;37.83;12.18;;;;;;;;;;5057386;28;20023;-74
2022/04/12 00:31:08;;;;;;;39.45;13.15;;;;;;;;;;5057352;28;20096;-73
2022/04/12 00:33:35;;;;;;;69.53;17.52;;;;;;;;;;5057231;28;20438;-73
2022/04/12 00:36:04;;;;;;;40.25;15.27;;;;;;;;;;5057873;28;20321;-73
2022/04/12 00:38:33;;;;;;;45.97;13.57;;;;;;;;;;5057393;28;20017;-73
2022/04/12 00:41:00;;;;;;;47.58;15.45;;;;;;;;;;5057613;28;20028;-73
2022/04/12 00:43:28;;;;;;;30.42;12.88;;;;;;;;;;5056999;28;20488;-73
2022/04/12 00:46:00;;;;;;;49.35;14.90;;;;;;;;;;5057508;28;20025;-73
2022/04/12 00:48:29;;;;;;;49.70;14.02;;;;;;;;;;5055865;28;20028;-73
2022/04/12 00:50:55;;;;;;;46.38;16.27;;;;;;;;;;5057646;28;20021;-75
2022/04/12 00:53:22;;;;;;;40.72;15.18;;;;;;;;;;5055871;28;20033;-73
2022/04/12 00:55:48;;;;;;;42.25;15.30;;;;;;;;;;5056195;28;20391;-74
2022/04/12 00:58:14;;;;;;;35.67;13.13;;;;;;;;;;5055933;28;20158;-73
2022/04/12 01:00:40;;;;;;;48.47;13.70;;;;;;;;;;5056496;28;20059;-74
2022/04/12 01:03:06;;;;;;;38.40;13.18;;;;;;;;;;5056689;28;20013;-74
2022/04/12 01:05:32;;;;;;;37.45;15.05;;;;;;;;;;5056900;28;20159;-73
2022/04/12 01:07:58;;;;;;;39.13;15.45;;;;;;;;;;5056925;28;20017;-73
2022/04/12 01:10:24;;;;;;;35.97;14.55;;;;;;;;;;5057060;28;20048;-74
2022/04/12 01:12:53;;;;;;;35.78;14.70;;;;;;;;;;5055741;28;20322;-74
2022/04/12 01:15:21;;;;;;;41.95;12.60;;;;;;;;;;5056546;28;20027;-73
2022/04/12 01:17:47;;;;;;;35.20;14.55;;;;;;;;;;5056718;28;20021;-73
2022/04/12 01:20:14;;;;;;;26.60;12.25;;;;;;;;;;5056069;28;20335;-73
2022/04/12 01:22:47;;;;;;;47.55;14.23;;;;;;;;;;5055221;28;20017;-73
2022/04/12 01:25:13;;;;;;;42.05;13.43;;;;;;;;;;5037438;28;20071;-73
2022/04/12 01:27:39;;;;;;;62.17;14.07;;;;;;;;;;5053861;28;20031;-73
2022/04/12 01:30:06;;;;;;;38.72;14.55;;;;;;;;;;5053836;28;20021;-73
2022/04/12 01:32:32;;;;;;;42.08;13.15;;;;;;;;;;5053726;28;20036;-74
2022/04/12 01:34:58;;;;;;;29.88;13.43;;;;;;;;;;5054767;28;20067;-73
2022/04/12 01:37:25;;;;;;;25.25;14.00;;;;;;;;;;5055280;28;20399;-74
2022/04/12 01:39:51;;;;;;;34.20;13.82;;;;;;;;;;5054299;28;20276;-74
2022/04/12 01:42:17;;;;;;;37.95;12.32;;;;;;;;;;5053380;28;20108;-74
2022/04/12 01:44:43;;;;;;;35.22;12.55;;;;;;;;;;5053435;28;20016;-73
2022/04/12 01:47:09;;;;;;;40.75;14.93;;;;;;;;;;5053311;28;20505;-74
2022/04/12 01:49:35;;;;;;;35.90;12.60;;;;;;;;;;5054046;28;20104;-73
2022/04/12 01:52:02;;;;;;;45.05;15.07;;;;;;;;;;5036174;28;20033;-73
2022/04/12 01:54:28;;;;;;;38.17;12.27;;;;;;;;;;5053944;28;20021;-74
2022/04/12 01:56:54;;;;;;;36.70;11.10;;;;;;;;;;5054085;28;20021;-73
2022/04/12 01:59:21;;;;;;;29.92;10.40;;;;;;;;;;5055094;28;20025;-73
2022/04/12 02:01:47;;;;;;;40.80;11.02;;;;;;;;;;5055587;28;20021;-73
2022/04/12 02:04:12;;;;;;;40.38;13.40;;;;;;;;;;5055697;28;20043;-72
2022/04/12 02:06:38;;;;;;;40.03;9.93;;;;;;;;;;5054964;28;20157;-72
2022/04/12 02:09:04;;;;;;;46.50;9.65;;;;;;;;;;5070290;28;20021;-73
2022/04/12 02:11:30;;;;;;;42.40;9.52;;;;;;;;;;5055643;28;20106;-72
2022/04/12 02:13:56;;;;;;;34.80;10.82;;;;;;;;;;5055565;28;20052;-73
2022/04/12 02:16:23;;;;;;;31.60;8.38;;;;;;;;;;5054931;28;20021;-73
2022/04/12 02:18:49;;;;;;;73.97;14.98;;;;;;;;;;5054415;28;20020;-73
2022/04/12 02:21:15;;;;;;;38.38;10.45;;;;;;;;;;5054878;28;20040;-72
2022/04/12 02:23:41;;;;;;;36.03;9.05;;;;;;;;;;5055646;28;20029;-73
2022/04/12 02:26:07;;;;;;;32.40;10.43;;;;;;;;;;5054288;28;20139;-73
2022/04/12 02:28:33;;;;;;;31.50;8.90;;;;;;;;;;5057222;28;20017;-73
2022/04/12 02:30:59;;;;;;;38.38;10.05;;;;;;;;;;5070912;28;20076;-72
2022/04/12 02:33:25;;;;;;;40.00;10.90;;;;;;;;;;5054217;28;20056;-72
2022/04/12 02:35:51;;;;;;;35.80;9.85;;;;;;;;;;5054580;28;20060;-73
2022/04/12 02:38:17;;;;;;;31.70;9.80;;;;;;;;;;5055308;28;20112;-74
2022/04/12 02:40:43;;;;;;;34.75;9.63;;;;;;;;;;5057767;28;20430;-74
2022/04/12 02:43:09;;;;;;;33.13;9.55;;;;;;;;;;5057739;28;20064;-74
2022/04/12 02:45:35;;;;;;;38.15;9.02;;;;;;;;;;5056603;28;20365;-73
2022/04/12 02:48:01;;;;;;;40.83;11.55;;;;;;;;;;5057734;28;20440;-73
2022/04/12 02:50:28;;;;;;;39.10;9.65;;;;;;;;;;5057029;28;20024;-73
2022/04/12 02:52:55;;;;;;;38.03;12.75;;;;;;;;;;5054416;28;20029;-74
2022/04/12 02:55:21;;;;;;;33.90;8.63;;;;;;;;;;5038090;28;20025;-74
2022/04/12 02:57:47;;;;;;;61.15;10.88;;;;;;;;;;5055377;28;20346;-74
2022/04/12 03:00:14;;;;;;;35.53;10.13;;;;;;;;;;5056597;28;20050;-75
2022/04/12 03:02:40;;;;;;;42.13;9.63;;;;;;;;;;5055053;28;20024;-75
2022/04/12 03:05:06;;;;;;;43.13;10.85;;;;;;;;;;5053690;28;20338;-74
2022/04/12 03:07:36;;;;;;;38.13;9.35;;;;;;;;;;5053609;28;20020;-74
2022/04/12 03:10:02;;;;;;;36.55;10.07;;;;;;;;;;5054724;28;20017;-74
2022/04/12 03:12:29;;;;;;;40.70;11.43;;;;;;;;;;5054254;28;20033;-74
2022/04/12 03:14:55;;;;;;;44.67;10.20;;;;;;;;;;5055693;28;20250;-74
2022/04/12 03:17:21;;;;;;;53.42;14.80;;;;;;;;;;5054884;28;20021;-74
2022/04/12 03:19:47;;;;;;;44.55;10.75;;;;;;;;;;5057011;28;20046;-74
2022/04/12 03:22:13;;;;;;;33.05;9.77;;;;;;;;;;5055010;28;20288;-74
2022/04/12 03:24:39;;;;;;;40.65;10.77;;;;;;;;;;5055843;28;20044;-74
2022/04/12 03:27:05;;;;;;;37.65;9.55;;;;;;;;;;5054112;28;20021;-75
2022/04/12 03:29:32;;;;;;;35.42;9.27;;;;;;;;;;5055759;28;20515;-74
2022/04/12 03:31:58;;;;;;;40.40;10.73;;;;;;;;;;5056502;28;20437;-74
2022/04/12 03:34:24;;;;;;;35.20;11.38;;;;;;;;;;5039533;28;20028;-75
2022/04/12 03:36:50;;;;;;;33.03;11.70;;;;;;;;;;5055254;28;20480;-74
2022/04/12 03:39:17;;;;;;;52.20;8.80;;;;;;;;;;5056136;28;20017;-74
2022/04/12 03:41:47;;;;;;;42.08;9.82;;;;;;;;;;5055618;28;20426;-74
2022/04/12 03:44:14;;;;;;;34.25;7.35;;;;;;;;;;5055974;28;20029;-74
2022/04/12 03:46:40;;;;;;;41.13;8.85;;;;;;;;;;5057413;28;20322;-74
2022/04/12 03:49:06;;;;;;;41.85;10.25;;;;;;;;;;5056743;28;20020;-73
2022/04/12 03:51:32;;;;;;;45.13;10.88;;;;;;;;;;5056726;28;20442;-74
2022/04/12 03:53:59;;;;;;;57.22;10.30;;;;;;;;;;5054684;28;20354;-74
2022/04/12 03:56:25;;;;;;;37.80;8.85;;;;;;;;;;5054527;28;20024;-74
2022/04/12 03:58:51;;;;;;;40.53;10.27;;;;;;;;;;5055594;28;20032;-73
2022/04/12 04:01:17;;;;;;;33.17;11.27;;;;;;;;;;5055548;28;20017;-74
2022/04/12 04:03:43;;;;;;;48.67;10.70;;;;;;;;;;5055181;28;20427;-73
2022/04/12 04:06:09;;;;;;;40.78;8.90;;;;;;;;;;5037334;28;20025;-74
2022/04/12 04:08:35;;;;;;;45.15;9.77;;;;;;;;;;5054848;28;20238;-73
2022/04/12 04:11:01;;;;;;;41.08;12.52;;;;;;;;;;5054424;28;20422;-74
2022/04/12 04:13:30;;;;;;;42.55;9.45;;;;;;;;;;5055647;28;20234;-74
2022/04/12 04:15:56;;;;;;;38.33;11.73;;;;;;;;;;5055561;28;20024;-73
2022/04/12 04:18:22;;;;;;;35.25;7.40;;;;;;;;;;5054857;28;20044;-73
2022/04/12 04:20:48;;;;;;;31.98;10.80;;;;;;;;;;5051392;28;20025;-73
2022/04/12 04:23:15;;;;;;;52.78;9.60;;;;;;;;;;5034175;28;20021;-73
2022/04/12 04:25:41;;;;;;;41.38;10.27;;;;;;;;;;5051003;28;20067;-73
2022/04/12 04:28:10;;;;;;;38.67;7.95;;;;;;;;;;5052661;28;20225;-73
2022/04/12 04:30:44;;;;;;;35.78;10.52;;;;;;;;;;5049639;28;20393;-73
2022/04/12 04:33:10;;;;;;;44.58;8.43;;;;;;;;;;5049635;28;20178;-73
2022/04/12 04:35:36;;;;;;;41.10;9.35;;;;;;;;;;5052743;28;20092;-73
2022/04/12 04:38:02;;;;;;;40.75;8.65;;;;;;;;;;5052889;28;20444;-74
2022/04/12 04:40:28;;;;;;;41.13;10.93;;;;;;;;;;5052066;28;20165;-73
2022/04/12 04:42:54;;;;;;;37.40;11.40;;;;;;;;;;5034649;28;20032;-74
2022/04/12 04:45:22;;;;;;;55.30;12.13;;;;;;;;;;5052775;28;20062;-74
2022/04/12 04:47:52;;;;;;;46.55;14.20;;;;;;;;;;5052332;28;20032;-74
2022/04/12 04:50:21;;;;;;;59.33;9.90;;;;;;;;;;5053312;28;20024;-74
2022/04/12 04:52:49;;;;;;;40.78;9.70;;;;;;;;;;5052356;28;20036;-73
2022/04/12 04:55:16;;;;;;;50.58;13.18;;;;;;;;;;5053007;28;20017;-73
2022/04/12 04:57:42;;;;;;;43.85;14.40;;;;;;;;;;5054200;28;20028;-73
2022/04/12 05:00:15;;;;;;;63.70;21.13;;;;;;;;;;5052994;28;20052;-72
2022/04/12 05:02:42;;;;;;;53.38;18.20;;;;;;;;;;5051437;28;20048;-72
2022/04/12 05:05:09;;;;;;;42.47;15.77;;;;;;;;;;5051989;28;20088;-72
2022/04/12 05:07:35;;;;;;;47.33;18.52;;;;;;;;;;5051338;28;20017;-72
2022/04/12 05:10:01;;;;;;;50.15;16.40;;;;;;;;;;5051569;28;20075;-72
2022/04/12 05:12:27;;;;;;;55.17;19.85;;;;;;;;;;5052536;28;20044;-73
2022/04/12 05:14:53;;;;;;;65.32;14.55;;;;;;;;;;5052169;28;20029;-73
2022/04/12 05:17:24;;;;;;;62.25;13.77;;;;;;;;;;5053814;28;20044;-74
2022/04/12 05:19:50;;;;;;;63.85;19.05;;;;;;;;;;5035745;28;20029;-73
2022/04/12 05:22:16;;;;;;;74.55;19.23;;;;;;;;;;5054488;28;20029;-74
2022/04/12 05:24:42;;;;;;;55.60;19.33;;;;;;;;;;5053999;28;20017;-73
2022/04/12 05:27:08;;;;;;;46.60;15.55;;;;;;;;;;5054411;28;20025;-73
2022/04/12 05:29:34;;;;;;;52.10;15.25;;;;;;;;;;5052214;28;20296;-73
2022/04/12 05:32:00;;;;;;;51.00;14.82;;;;;;;;;;5051443;28;20021;-74
2022/04/12 05:34:26;;;;;;;38.42;13.60;;;;;;;;;;5056438;28;20121;-73
2022/04/12 05:36:52;;;;;;;38.75;14.20;;;;;;;;;;5052905;28;20013;-74
2022/04/12 05:39:18;;;;;;;45.33;16.25;;;;;;;;;;5054143;28;20442;-72
2022/04/12 05:41:44;;;;;;;57.38;19.70;;;;;;;;;;5036451;28;20017;-74
2022/04/12 05:44:10;;;;;;;40.10;14.35;;;;;;;;;;5053906;28;20017;-73
2022/04/12 05:46:37;;;;;;;37.15;13.18;;;;;;;;;;5053191;28;20361;-74
2022/04/12 05:49:03;;;;;;;44.50;15.60;;;;;;;;;;5052039;28;20017;-73
2022/04/12 05:51:29;;;;;;;34.08;12.25;;;;;;;;;;5051677;28;20075;-74
2022/04/12 05:53:55;;;;;;;35.40;12.52;;;;;;;;;;5051565;28;20354;-72
2022/04/12 05:56:22;;;;;;;42.22;12.07;;;;;;;;;;5052787;28;20107;-73
2022/04/12 05:58:49;;;;;;;44.05;12.82;;;;;;;;;;5036570;28;20032;-72
2022/04/12 06:01:15;;;;;;;41.05;12.25;;;;;;;;;;5053986;28;20434;-72
2022/04/12 06:03:41;;;;;;;42.55;10.52;;;;;;;;;;5035839;28;20024;-74
2022/04/12 06:06:07;;;;;;;48.00;11.60;;;;;;;;;;5053206;28;20028;-72
2022/04/12 06:08:34;;;;;;;33.72;13.35;;;;;;;;;;5054197;28;20111;-74
2022/04/12 06:11:01;;;;;;;36.22;9.45;;;;;;;;;;5053140;28;20430;-73
2022/04/12 06:13:28;;;;;;;38.17;9.93;;;;;;;;;;5037259;28;20431;-74
2022/04/12 06:15:55;;;;;;;31.90;8.52;;;;;;;;;;5057272;28;20025;-73
2022/04/12 06:18:21;;;;;;;68.00;11.57;;;;;;;;;;5057894;28;20021;-74
2022/04/12 06:20:48;;;;;;;28.23;8.25;;;;;;;;;;5060245;28;20122;-73
2022/04/12 06:23:15;;;;;;;46.70;7.80;;;;;;;;;;5056258;28;20025;-73
2022/04/12 06:25:41;;;;;;;43.13;12.40;;;;;;;;;;5056597;28;20021;-73
2022/04/12 06:28:09;;;;;;;32.50;7.68;;;;;;;;;;5056552;28;20021;-72
2022/04/12 06:30:37;;;;;;;51.75;11.43;;;;;;;;;;5039815;28;20098;-74
2022/04/12 06:33:04;;;;;;;41.38;10.55;;;;;;;;;;5039495;28;20036;-72
2022/04/12 06:35:34;;;;;;;36.80;8.32;;;;;;;;;;5040331;28;20500;-74
2022/04/12 06:38:02;;;;;;;33.92;9.05;;;;;;;;;;5057199;28;20052;-73
2022/04/12 06:40:28;;;;;;;45.90;9.18;;;;;;;;;;5056143;28;20021;-73
2022/04/12 06:42:55;;;;;;;56.80;11.10;;;;;;;;;;5056302;28;20017;-74
2022/04/12 06:45:21;;;;;;;36.15;8.35;;;;;;;;;;5056252;28;20021;-74
2022/04/12 06:47:54;;;;;;;23.65;7.18;;;;;;;;;;5056693;28;20028;-73
2022/04/12 06:50:20;;;;;;;57.42;11.27;;;;;;;;;;5056725;28;20025;-74
2022/04/12 06:52:46;;;;;;;22.75;8.40;;;;;;;;;;5056839;28;20461;-75
2022/04/12 06:55:12;;;;;;;31.63;10.05;;;;;;;;;;5038801;28;20361;-73
2022/04/12 06:57:38;;;;;;;39.20;9.18;;;;;;;;;;5054946;28;20043;-73
2022/04/12 07:00:05;;;;;;;46.80;10.52;;;;;;;;;;5055929;28;20413;-72
2022/04/12 07:02:31;;;;;;;38.33;8.63;;;;;;;;;;5055555;28;20252;-73
2022/04/12 07:04:57;;;;;;;64.00;11.18;;;;;;;;;;5057130;28;20025;-73
2022/04/12 07:07:24;;;;;;;40.70;8.43;;;;;;;;;;5057984;28;20024;-73
2022/04/12 07:09:50;;;;;;;33.80;7.18;;;;;;;;;;5038975;28;20101;-73
2022/04/12 07:12:16;;;;;;;36.33;8.43;;;;;;;;;;5056466;28;20102;-73
2022/04/12 07:14:42;;;;;;;38.63;8.90;;;;;;;;;;5072709;28;20044;-73
2022/04/12 07:17:09;;;;;;;45.53;10.65;;;;;;;;;;5037870;28;20047;-75
2022/04/12 07:19:35;;;;;;;36.50;8.65;;;;;;;;;;5053309;28;20048;-73
2022/04/12 07:22:01;;;;;;;40.92;7.82;;;;;;;;;;5053644;28;20426;-73
2022/04/12 07:24:27;;;;;;;35.25;7.53;;;;;;;;;;5054852;28;20017;-74
2022/04/12 07:26:53;;;;;;;72.45;11.75;;;;;;;;;;5052690;28;20421;-72
2022/04/12 07:29:19;;;;;;;33.38;9.15;;;;;;;;;;5036916;28;20021;-72
2022/04/12 07:31:45;;;;;;;27.65;7.93;;;;;;;;;;5054358;28;20031;-74
2022/04/12 07:34:11;;;;;;;40.92;8.82;;;;;;;;;;5053782;28;20438;-73
2022/04/12 07:36:39;;;;;;;35.90;7.68;;;;;;;;;;5036620;28;20028;-74
2022/04/12 07:39:08;;;;;;;38.17;6.80;;;;;;;;;;5054265;28;20036;-73
2022/04/12 07:41:34;;;;;;;40.85;8.90;;;;;;;;;;5060663;28;20454;-73
2022/04/12 07:44:00;;;;;;;53.00;9.82;;;;;;;;;;5055031;28;20020;-73
2022/04/12 07:46:27;;;;;;;47.33;9.15;;;;;;;;;;5053648;28;20043;-75
2022/04/12 07:48:53;;;;;;;31.20;7.82;;;;;;;;;;5053918;28;20105;-74
2022/04/12 07:51:19;;;;;;;49.15;10.20;;;;;;;;;;5054213;28;20024;-74
2022/04/12 07:53:45;;;;;;;42.00;7.80;;;;;;;;;;5038132;28;20025;-74
2022/04/12 07:56:14;;;;;;;37.88;9.23;;;;;;;;;;5038471;28;20027;-74
2022/04/12 07:58:40;;;;;;;36.90;9.02;;;;;;;;;;5057018;28;20312;-74
2022/04/12 08:01:06;;;;;;;32.53;8.30;;;;;;;;;;5057572;28;20025;-74
2022/04/12 08:03:32;;;;;;;35.30;7.65;;;;;;;;;;5056794;28;20024;-74
2022/04/12 08:05:58;;;;;;;50.50;8.80;;;;;;;;;;5057267;28;20021;-74
2022/04/12 08:08:24;;;;;;;29.13;6.75;;;;;;;;;;5072548;28;20044;-73
2022/04/12 08:10:50;;;;;;;35.22;6.95;;;;;;;;;;5055157;28;20025;-76
2022/04/12 08:13:17;;;;;;;32.38;7.07;;;;;;;;;;5055737;28;20033;-74
2022/04/12 08:15:43;;;;;;;49.63;7.57;;;;;;;;;;5038728;28;20375;-75
2022/04/12 08:18:09;;;;;;;36.88;8.48;;;;;;;;;;5056693;28;20028;-74
2022/04/12 08:20:38;;;;;;;32.38;7.53;;;;;;;;;;5056503;28;20020;-75
2022/04/12 08:23:05;;;;;;;33.42;8.65;;;;;;;;;;5038489;28;20028;-74
2022/04/12 08:25:31;;;;;;;26.67;6.75;;;;;;;;;;5038238;28;20114;-74
2022/04/12 08:27:57;;;;;;;30.02;6.90;;;;;;;;;;5054205;28;20024;-73
2022/04/12 08:30:23;;;;;;;38.47;9.40;;;;;;;;;;5056339;28;20441;-73
2022/04/12 08:32:49;;;;;;;25.92;5.90;;;;;;;;;;5054726;28;20442;-74
2022/04/12 08:35:15;;;;;;;28.75;7.65;;;;;;;;;;5054789;28;20025;-75
2022/04/12 08:37:41;;;;;;;28.48;6.03;;;;;;;;;;5054530;28;20043;-74
2022/04/12 08:40:07;;;;;;;31.90;6.15;;;;;;;;;;5055968;28;20017;-74
2022/04/12 08:42:33;;;;;;;25.48;6.10;;;;;;;;;;5055923;28;20032;-74
2022/04/12 08:45:01;;;;;;;24.73;6.40;;;;;;;;;;5056095;28;20021;-76
2022/04/12 08:47:31;;;;;;;28.98;8.68;;;;;;;;;;5038544;28;20342;-74
2022/04/12 08:49:59;;;;;;;29.73;7.28;;;;;;;;;;5054302;28;20465;-73
2022/04/12 08:52:26;;;;;;;34.72;9.40;;;;;;;;;;5055956;28;20438;-73
2022/04/12 08:54:55;;;;;;;32.78;6.25;;;;;;;;;;5038768;28;20143;-74
2022/04/12 08:57:21;;;;;;;36.38;8.25;;;;;;;;;;5059290;28;20361;-74
2022/04/12 08:59:48;;;;;;;20.48;6.63;;;;;;;;;;5040410;28;20017;-73
2022/04/12 09:02:14;;;;;;;29.63;6.10;;;;;;;;;;5039352;28;20152;-74
2022/04/12 09:04:41;;;;;;;44.72;11.10;;;;;;;;;;5057444;28;20025;-73
2022/04/12 09:07:07;;;;;;;25.48;7.75;;;;;;;;;;5058135;28;20017;-73
2022/04/12 09:09:34;;;;;;;39.13;7.95;;;;;;;;;;5058155;28;20055;-73
2022/04/12 09:12:04;;;;;;;42.83;7.88;;;;;;;;;;5056610;28;20040;-74
2022/04/12 09:14:30;;;;;;;;;;;;;;;;;;5039369;28;20041;-72
2022/04/12 09:16:56;;;;;;;27.45;7.00;;;;;;;;;;5055116;28;20314;-74
2022/04/12 09:19:41;;;;;;;39.95;8.10;;;;;;;;;;5056447;28;20425;-74
2022/04/12 09:22:14;;;;;;;36.95;9.93;;;;;;;;;;5054547;28;20032;-74
2022/04/12 09:24:50;;;;;;;37.45;9.38;;;;;;;;;;5055218;28;20028;-74
2022/04/12 09:27:19;;;;;;;42.20;8.43;;;;;;;;;;5058045;28;20028;-73
2022/04/12 09:29:46;;;;;;;24.40;6.63;;;;;;;;;;5058238;28;20414;-73
2022/04/12 09:32:14;;;;;;;21.75;7.22;;;;;;;;;;5055497;28;20072;-74
2022/04/12 09:34:41;;;;;;;30.05;7.47;;;;;;;;;;5053726;28;20033;-74
2022/04/12 09:37:33;;;;;;;26.48;7.70;;;;;;;;;;5053727;28;20036;-73
2022/04/12 09:39:59;;;;;;;27.70;6.55;;;;;;;;;;5050830;28;20044;-73
2022/04/12 09:42:42;;;;;;;29.83;7.55;;;;;;;;;;5054721;28;20017;-74
2022/04/12 09:45:13;;;;;;;51.33;10.23;;;;;;;;;;5055821;28;20032;-74
2022/04/12 09:47:41;;;;;;;21.15;7.93;;;;;;;;;;5059442;28;20047;-72
2022/04/12 09:50:09;;;;;;;38.55;8.75;;;;;;;;;;5058597;28;20040;-72
2022/04/12 09:52:35;;;;;;;28.38;7.35;;;;;;;;;;5057872;28;20312;-72
2022/04/12 09:55:01;;;;;;;37.42;8.63;;;;;;;;;;5058855;28;20013;-72
2022/04/12 09:57:27;;;;;;;24.00;7.30;;;;;;;;;;5058488;28;20439;-72
2022/04/12 09:59:54;;;;;;;26.58;6.45;;;;;;;;;;5073385;28;20112;-73
2022/04/12 10:02:22;;;;;;;20.38;6.82;;;;;;;;;;5057865;28;20032;-72
2022/04/12 10:04:48;;;;;;;37.22;11.38;;;;;;;;;;5057396;28;20112;-72
2022/04/12 10:07:17;;;;;;;53.38;13.55;;;;;;;;;;5060271;28;20017;-72
2022/04/12 10:09:43;;;;;;;34.75;7.82;;;;;;;;;;5059059;28;20017;-72
2022/04/12 10:12:09;;;;;;;37.83;8.88;;;;;;;;;;5059641;28;20028;-72
2022/04/12 10:14:36;;;;;;;28.05;7.72;;;;;;;;;;5058526;28;20035;-72
2022/04/12 10:17:02;;;;;;;40.28;8.88;;;;;;;;;;5059843;28;20415;-72
2022/04/12 10:19:29;;;;;;;27.30;7.88;;;;;;;;;;5058460;28;20028;-72
2022/04/12 10:21:58;;;;;;;38.38;8.98;;;;;;;;;;5059825;28;20322;-73
2022/04/12 10:24:27;;;;;;;37.63;9.07;;;;;;;;;;5060180;28;20016;-72
2022/04/12 10:26:54;;;;;;;30.30;8.70;;;;;;;;;;5058481;28;20380;-72
2022/04/12 10:29:20;;;;;;;35.28;9.75;;;;;;;;;;5059836;28;20029;-73
2022/04/12 10:32:00;;;;;;;45.33;10.38;;;;;;;;;;5059515;28;20446;-72
2022/04/12 10:34:29;;;;;;;36.27;8.03;;;;;;;;;;5059831;28;20033;-72
2022/04/12 10:36:55;;;;;;;27.75;9.55;;;;;;;;;;5059380;28;20111;-72
2022/04/12 10:39:31;;;;;;;40.50;9.35;;;;;;;;;;5059277;28;20107;-73
2022/04/12 10:42:00;;;;;;;38.20;7.82;;;;;;;;;;5058242;28;20422;-72
2022/04/12 10:44:26;;;;;;;35.40;7.35;;;;;;;;;;5058595;28;20422;-73
2022/04/12 10:46:52;;;;;;;47.33;9.45;;;;;;;;;;5058426;28;20021;-72
2022/04/12 10:49:21;;;;;;;25.80;8.57;;;;;;;;;;5059529;28;20021;-73
2022/04/12 10:51:59;;;;;;;29.02;6.88;;;;;;;;;;5058601;28;20083;-72
2022/04/12 10:54:29;;;;;;;35.30;7.47;;;;;;;;;;5059101;28;20413;-72
2022/04/12 10:57:31;;;;;;;32.30;8.38;;;;;;;;;;5059372;28;20017;-72
2022/04/12 10:59:59;;;;;;;20.50;5.78;;;;;;;;;;4996903;28;20074;-72
2022/04/12 11:02:37;;;;;;;34.85;7.90;;;;;;;;;;5047235;28;20025;-72
2022/04/12 11:05:03;;;;;;;28.35;7.53;;;;;;;;;;5059774;28;20115;-72
2022/04/12 11:07:31;;;;;;;38.50;7.88;;;;;;;;;;5059230;28;20098;-72
2022/04/12 11:10:12;;;;;;;38.10;7.72;;;;;;;;;;5058861;28;20426;-73
2022/04/12 11:12:42;;;;;;;26.45;7.53;;;;;;;;;;5058165;28;20102;-72
2022/04/12 11:15:21;;;;;;;32.13;6.10;;;;;;;;;;5060444;28;20423;-72
2022/04/12 11:17:47;;;;;;;29.88;8.07;;;;;;;;;;5059474;28;20028;-72
2022/04/12 11:20:20;;;;;;;29.20;7.03;;;;;;;;;;5058654;28;20031;-72
2022/04/12 11:22:54;;;;;;;24.27;5.95;;;;;;;;;;5057529;28;20379;-73
2022/04/12 11:25:21;;;;;;;23.23;7.13;;;;;;;;;;5059036;28;20119;-72
2022/04/12 11:27:54;;;;;;;36.45;7.55;;;;;;;;;;5059224;28;20398;-73
2022/04/12 11:30:20;;;;;;;21.30;6.80;;;;;;;;;;5058395;28;20024;-72
2022/04/12 11:32:47;;;;;;;26.85;5.82;;;;;;;;;;5058855;28;20029;-73
2022/04/12 11:35:13;;;;;;;22.42;6.40;;;;;;;;;;5058868;28;20021;-72
2022/04/12 11:37:40;;;;;;;27.08;7.70;;;;;;;;;;5058320;28;20021;-73
2022/04/12 11:40:06;;;;;;;32.38;9.00;;;;;;;;;;5058918;28;20112;-72
2022/04/12 11:42:33;;;;;;;27.17;7.90;;;;;;;;;;5057867;28;20021;-72
2022/04/12 11:45:00;;;;;;;25.52;7.47;;;;;;;;;;5058816;28;20028;-72
2022/04/12 11:47:27;;;;;;;27.85;9.73;;;;;;;;;;5057530;28;20074;-73
2022/04/12 11:49:53;;;;;;;25.75;7.70;;;;;;;;;;5058766;28;20432;-72
2022/04/12 11:52:19;;;;;;;25.83;7.20;;;;;;;;;;5058669;28;20167;-74
2022/04/12 11:54:47;;;;;;;39.55;5.90;;;;;;;;;;5058519;28;20036;-72
2022/04/12 11:57:14;;;;;;;35.50;7.55;;;;;;;;;;5057862;28;20017;-73
2022/04/12 11:59:56;;;;;;;24.02;7.50;;;;;;;;;;5057834;28;20017;-73
2022/04/12 12:02:26;;;;;;;27.00;8.73;;;;;;;;;;5058390;28;20025;-73
2022/04/12 12:04:53;;;;;;;18.23;5.45;;;;;;;;;;5058483;28;20028;-74
2022/04/12 12:07:19;;;;;;;17.95;5.22;;;;;;;;;;5058208;28;20116;-72
2022/04/12 12:09:53;;;;;;;12.07;4.95;;;;;;;;;;5058117;28;20028;-75
2022/04/12 12:12:19;;;;;;;19.45;5.10;;;;;;;;;;5056929;28;20025;-73
2022/04/12 12:14:45;;;;;;;21.48;6.57;;;;;;;;;;5057200;28;20021;-73
2022/04/12 12:17:20;;;;;;;15.77;6.00;;;;;;;;;;5057993;28;20060;-74
2022/04/12 12:19:46;;;;;;;16.85;5.28;;;;;;;;;;5058119;28;20470;-74
2022/04/12 12:22:14;;;;;;;20.73;8.57;;;;;;;;;;5057554;28;20358;-73
2022/04/12 12:24:49;;;;;;;14.75;6.18;;;;;;;;;;5057543;28;20115;-74
2022/04/12 12:27:25;;;;;;;11.18;3.38;;;;;;;;;;5057944;28;20422;-72
2022/04/12 12:29:51;;;;;;;11.60;5.07;;;;;;;;;;5057901;28;20083;-75
2022/04/12 12:32:17;;;;;;;19.50;6.13;;;;;;;;;;5057215;28;20021;-73
2022/04/12 12:34:44;;;;;;;11.10;5.32;;;;;;;;;;5039740;28;20021;-73
2022/04/12 12:37:11;;;;;;;25.70;5.82;;;;;;;;;;5039821;28;20082;-72
2022/04/12 12:39:40;;;;;;;21.65;5.47;;;;;;;;;;5057671;28;20108;-74
2022/04/12 12:42:07;;;;;;;24.83;5.75;;;;;;;;;;5057814;28;20016;-73
2022/04/12 12:44:35;;;;;;;14.63;6.95;;;;;;;;;;5057994;28;20055;-72
2022/04/12 12:47:04;;;;;;;23.35;6.70;;;;;;;;;;5057710;28;20017;-72
2022/04/12 12:49:40;;;;;;;12.90;5.88;;;;;;;;;;5057606;28;20025;-74
2022/04/12 12:52:07;;;;;;;12.13;6.07;;;;;;;;;;5057772;28;20029;-73
2022/04/12 12:54:33;;;;;;;15.40;5.65;;;;;;;;;;5056535;28;20055;-73
2022/04/12 12:57:01;;;;;;;16.20;7.32;;;;;;;;;;5057491;28;20079;-73
2022/04/12 12:59:31;;;;;;;23.13;5.82;;;;;;;;;;5055651;28;20100;-73
2022/04/12 13:01:58;;;;;;;12.35;5.75;;;;;;;;;;5056223;28;20151;-73
2022/04/12 13:04:25;;;;;;;15.68;5.80;;;;;;;;;;5056713;28;20025;-73
2022/04/12 13:07:08;;;;;;;17.83;6.32;;;;;;;;;;5057134;28;20025;-73
2022/04/12 13:09:44;;;;;;;20.33;4.72;;;;;;;;;;5055529;28;20048;-73
2022/04/12 13:12:11;;;;;;;22.27;6.68;;;;;;;;;;5057009;28;20021;-73
2022/04/12 13:14:37;;;;;;;14.43;4.93;;;;;;;;;;5056456;28;20040;-73
2022/04/12 13:17:04;;;;;;;10.43;5.07;;;;;;;;;;5056608;28;20426;-73
2022/04/12 13:19:31;;;;;;;17.70;5.85;;;;;;;;;;5056465;28;20110;-73
2022/04/12 13:21:58;;;;;;;21.85;6.28;;;;;;;;;;5056519;28;20028;-73
2022/04/12 13:24:25;;;;;;;14.55;6.28;;;;;;;;;;5056488;28;20017;-73
2022/04/12 13:26:51;;;;;;;24.75;7.53;;;;;;;;;;5056763;28;20311;-72
2022/04/12 13:29:21;;;;;;;23.92;6.70;;;;;;;;;;5056909;28;20028;-73
2022/04/12 13:31:47;;;;;;;23.23;7.40;;;;;;;;;;5057036;28;20043;-73
2022/04/12 13:34:13;;;;;;;17.85;6.80;;;;;;;;;;5056756;28;20079;-73
2022/04/12 13:36:39;;;;;;;21.83;6.40;;;;;;;;;;5056791;28;20090;-73
2022/04/12 13:39:08;;;;;;;18.65;6.00;;;;;;;;;;5057039;28;20048;-72
2022/04/12 13:41:37;;;;;;;24.27;7.60;;;;;;;;;;5056926;28;20025;-73
2022/04/12 13:44:03;;;;;;;19.07;7.13;;;;;;;;;;5056934;28;20051;-72
2022/04/12 13:46:29;;;;;;;14.30;6.32;;;;;;;;;;5056901;28;20027;-72
2022/04/12 13:48:55;;;;;;;17.90;6.28;;;;;;;;;;5056924;28;20022;-72
2022/04/12 13:51:21;;;;;;;19.42;5.47;;;;;;;;;;5056757;28;20029;-72
2022/04/12 13:53:47;;;;;;;26.52;5.80;;;;;;;;;;5056206;28;20124;-72
2022/04/12 13:56:14;;;;;;;15.65;6.43;;;;;;;;;;5038966;28;20033;-73
2022/04/12 13:58:40;;;;;;;17.90;6.60;;;;;;;;;;5056745;28;20025;-72
2022/04/12 14:01:07;;;;;;;25.92;7.95;;;;;;;;;;5055487;28;20480;-72
2022/04/12 14:03:33;;;;;;;18.02;6.68;;;;;;;;;;5055778;28;20029;-72
2022/04/12 14:06:01;;;;;;;16.02;6.07;;;;;;;;;;5055362;28;20027;-72
2022/04/12 14:08:31;;;;;;;18.90;6.50;;;;;;;;;;5055353;28;20441;-72
2022/04/12 14:10:58;;;;;;;15.50;7.22;;;;;;;;;;5056131;28;20021;-72
2022/04/12 14:13:24;;;;;;;16.75;6.65;;;;;;;;;;5055839;28;20366;-72
2022/04/12 14:15:50;;;;;;;16.67;5.70;;;;;;;;;;5055270;28;20043;-72
2022/04/12 14:18:17;;;;;;;18.45;6.18;;;;;;;;;;5055934;28;20014;-72
2022/04/12 14:20:43;;;;;;;30.65;6.80;;;;;;;;;;5055238;28;20497;-72
2022/04/12 14:23:09;;;;;;;17.80;6.63;;;;;;;;;;5055333;28;20108;-72
2022/04/12 14:25:36;;;;;;;18.85;6.47;;;;;;;;;;5056502;28;20021;-72
2022/04/12 14:28:02;;;;;;;20.25;7.65;;;;;;;;;;5056513;28;20043;-72
2022/04/12 14:30:28;;;;;;;25.55;8.18;;;;;;;;;;5055903;28;20063;-72